sensor_id;sensor_type;location;lat;lon;timestamp;P1;durP1;ratioP1;P2;durP2;ratioP2
38851;SDS011;24605;50.092;9.182;2023-12-07T00:01:10;30.58;;;14.30;;
38851;SDS011;24605;50.092;9.182;2023-12-07T00:03:36;26.40;;;14.02;;
38851;SDS011;24605;50.092;9.182;2023-12-07T00:06:03;27.73;;;14.13;;
38851;SDS011;24605;50.092;9.182;2023-12-07T00:08:31;25.05;;;13.32;;
38851;SDS011;24605;50.092;9.182;2023-12-07T00:10:57;30.77;;;13.88;;
38851;SDS011;24605;50.092;9.182;2023-12-07T00:13:24;30.58;;;14.93;;
38851;SDS011;24605;50.092;9.182;2023-12-07T00:15:50;32.28;;;15.98;;
38851;SDS011;24605;50.092;9.182;2023-12-07T00:18:17;29.80;;;15.73;;
38851;SDS011;24605;50.092;9.182;2023-12-07T00:20:44;29.90;;;15.13;;
38851;SDS011;24605;50.092;9.182;2023-12-07T00:23:11;30.10;;;14.98;;
38851;SDS011;24605;50.092;9.182;2023-12-07T00:25:38;33.47;;;15.57;;
38851;SDS011;24605;50.092;9.182;2023-12-07T00:28:05;32.45;;;16.75;;
38851;SDS011;24605;50.092;9.182;2023-12-07T00:30:30;31.58;;;16.50;;
38851;SDS011;24605;50.092;9.182;2023-12-07T00:32:57;32.70;;;16.55;;
38851;SDS011;24605;50.092;9.182;2023-12-07T00:35:24;28.85;;;15.95;;
38851;SDS011;24605;50.092;9.182;2023-12-07T00:37:53;31.33;;;15.55;;
38851;SDS011;24605;50.092;9.182;2023-12-07T00:40:21;33.80;;;16.23;;
38851;SDS011;24605;50.092;9.182;2023-12-07T00:42:49;34.33;;;16.35;;
38851;SDS011;24605;50.092;9.182;2023-12-07T00:45:18;34.70;;;16.63;;
38851;SDS011;24605;50.092;9.182;2023-12-07T00:47:44;34.38;;;17.10;;
38851;SDS011;24605;50.092;9.182;2023-12-07T00:50:12;35.38;;;17.80;;
38851;SDS011;24605;50.092;9.182;2023-12-07T00:52:39;31.02;;;15.65;;
38851;SDS011;24605;50.092;9.182;2023-12-07T00:55:06;34.20;;;16.35;;
38851;SDS011;24605;50.092;9.182;2023-12-07T00:57:33;30.25;;;15.70;;
38851;SDS011;24605;50.092;9.182;2023-12-07T01:00:00;31.83;;;15.23;;
38851;SDS011;24605;50.092;9.182;2023-12-07T01:02:27;35.60;;;16.58;;
38851;SDS011;24605;50.092;9.182;2023-12-07T01:04:53;32.10;;;17.08;;
38851;SDS011;24605;50.092;9.182;2023-12-07T01:07:20;31.15;;;16.30;;
38851;SDS011;24605;50.092;9.182;2023-12-07T01:09:46;33.58;;;16.25;;
38851;SDS011;24605;50.092;9.182;2023-12-07T01:12:13;29.63;;;14.90;;
38851;SDS011;24605;50.092;9.182;2023-12-07T01:14:39;30.52;;;15.50;;
38851;SDS011;24605;50.092;9.182;2023-12-07T01:17:07;32.00;;;16.48;;
38851;SDS011;24605;50.092;9.182;2023-12-07T01:19:33;27.23;;;14.63;;
38851;SDS011;24605;50.092;9.182;2023-12-07T01:22:00;27.40;;;13.57;;
38851;SDS011;24605;50.092;9.182;2023-12-07T01:24:26;27.17;;;14.27;;
38851;SDS011;24605;50.092;9.182;2023-12-07T01:26:54;27.10;;;14.20;;
38851;SDS011;24605;50.092;9.182;2023-12-07T01:29:20;27.50;;;14.25;;
38851;SDS011;24605;50.092;9.182;2023-12-07T01:31:47;27.58;;;14.13;;
38851;SDS011;24605;50.092;9.182;2023-12-07T01:34:14;26.00;;;14.52;;
38851;SDS011;24605;50.092;9.182;2023-12-07T01:36:43;25.08;;;13.60;;
38851;SDS011;24605;50.092;9.182;2023-12-07T01:39:09;28.35;;;13.77;;
38851;SDS011;24605;50.092;9.182;2023-12-07T01:41:37;32.95;;;14.65;;
38851;SDS011;24605;50.092;9.182;2023-12-07T01:44:04;28.65;;;12.98;;
38851;SDS011;24605;50.092;9.182;2023-12-07T01:46:30;29.58;;;14.40;;
38851;SDS011;24605;50.092;9.182;2023-12-07T01:48:58;28.70;;;14.27;;
38851;SDS011;24605;50.092;9.182;2023-12-07T01:51:27;30.20;;;14.13;;
38851;SDS011;24605;50.092;9.182;2023-12-07T01:53:53;29.05;;;15.25;;
38851;SDS011;24605;50.092;9.182;2023-12-07T01:56:20;31.55;;;14.73;;
38851;SDS011;24605;50.092;9.182;2023-12-07T01:58:48;30.50;;;14.93;;
38851;SDS011;24605;50.092;9.182;2023-12-07T02:01:15;30.08;;;14.88;;
38851;SDS011;24605;50.092;9.182;2023-12-07T02:03:42;31.23;;;14.27;;
38851;SDS011;24605;50.092;9.182;2023-12-07T02:06:09;34.33;;;15.40;;
38851;SDS011;24605;50.092;9.182;2023-12-07T02:08:37;30.77;;;15.30;;
38851;SDS011;24605;50.092;9.182;2023-12-07T02:11:06;30.35;;;15.43;;
38851;SDS011;24605;50.092;9.182;2023-12-07T02:13:33;37.83;;;15.02;;
38851;SDS011;24605;50.092;9.182;2023-12-07T02:16:00;29.50;;;14.35;;
38851;SDS011;24605;50.092;9.182;2023-12-07T02:18:35;31.02;;;15.00;;
38851;SDS011;24605;50.092;9.182;2023-12-07T02:21:08;34.58;;;15.40;;
38851;SDS011;24605;50.092;9.182;2023-12-07T02:23:41;33.05;;;15.20;;
38851;SDS011;24605;50.092;9.182;2023-12-07T02:29:19;31.75;;;15.48;;
38851;SDS011;24605;50.092;9.182;2023-12-07T02:31:45;33.38;;;15.88;;
38851;SDS011;24605;50.092;9.182;2023-12-07T02:34:12;36.95;;;16.35;;
38851;SDS011;24605;50.092;9.182;2023-12-07T02:36:39;34.28;;;16.38;;
38851;SDS011;24605;50.092;9.182;2023-12-07T02:39:07;27.77;;;15.25;;
38851;SDS011;24605;50.092;9.182;2023-12-07T02:41:37;32.72;;;16.02;;
38851;SDS011;24605;50.092;9.182;2023-12-07T02:44:05;33.25;;;15.50;;
38851;SDS011;24605;50.092;9.182;2023-12-07T02:46:34;32.83;;;15.43;;
38851;SDS011;24605;50.092;9.182;2023-12-07T02:49:00;32.10;;;16.63;;
38851;SDS011;24605;50.092;9.182;2023-12-07T02:51:27;34.08;;;15.85;;
38851;SDS011;24605;50.092;9.182;2023-12-07T02:53:53;30.75;;;15.85;;
38851;SDS011;24605;50.092;9.182;2023-12-07T02:56:19;36.03;;;16.17;;
38851;SDS011;24605;50.092;9.182;2023-12-07T02:58:46;37.85;;;16.45;;
38851;SDS011;24605;50.092;9.182;2023-12-07T03:01:12;35.58;;;16.70;;
38851;SDS011;24605;50.092;9.182;2023-12-07T03:03:40;32.15;;;16.05;;
38851;SDS011;24605;50.092;9.182;2023-12-07T03:06:07;33.60;;;15.70;;
38851;SDS011;24605;50.092;9.182;2023-12-07T03:08:33;34.72;;;15.70;;
38851;SDS011;24605;50.092;9.182;2023-12-07T03:11:00;35.22;;;14.68;;
38851;SDS011;24605;50.092;9.182;2023-12-07T03:13:26;33.58;;;15.05;;
38851;SDS011;24605;50.092;9.182;2023-12-07T03:15:53;35.80;;;15.57;;
38851;SDS011;24605;50.092;9.182;2023-12-07T03:18:19;26.13;;;12.70;;
38851;SDS011;24605;50.092;9.182;2023-12-07T03:20:47;34.75;;;15.60;;
38851;SDS011;24605;50.092;9.182;2023-12-07T03:23:15;32.63;;;15.73;;
38851;SDS011;24605;50.092;9.182;2023-12-07T03:25:42;33.13;;;15.95;;
38851;SDS011;24605;50.092;9.182;2023-12-07T03:28:08;31.85;;;16.00;;
38851;SDS011;24605;50.092;9.182;2023-12-07T03:30:34;33.15;;;15.45;;
38851;SDS011;24605;50.092;9.182;2023-12-07T03:33:01;35.78;;;15.43;;
38851;SDS011;24605;50.092;9.182;2023-12-07T03:35:27;32.92;;;15.52;;
38851;SDS011;24605;50.092;9.182;2023-12-07T03:37:55;32.42;;;15.60;;
38851;SDS011;24605;50.092;9.182;2023-12-07T03:40:21;30.60;;;14.13;;
38851;SDS011;24605;50.092;9.182;2023-12-07T03:42:48;30.38;;;14.52;;
38851;SDS011;24605;50.092;9.182;2023-12-07T03:45:13;28.67;;;14.27;;
38851;SDS011;24605;50.092;9.182;2023-12-07T03:47:41;33.42;;;14.75;;
38851;SDS011;24605;50.092;9.182;2023-12-07T03:50:07;28.65;;;14.55;;
38851;SDS011;24605;50.092;9.182;2023-12-07T03:52:34;30.38;;;13.93;;
38851;SDS011;24605;50.092;9.182;2023-12-07T03:55:02;34.67;;;15.20;;
38851;SDS011;24605;50.092;9.182;2023-12-07T03:57:30;28.25;;;14.00;;
38851;SDS011;24605;50.092;9.182;2023-12-07T03:59:56;28.95;;;14.00;;
38851;SDS011;24605;50.092;9.182;2023-12-07T04:02:22;35.30;;;14.65;;
38851;SDS011;24605;50.092;9.182;2023-12-07T04:04:49;34.30;;;17.40;;
38851;SDS011;24605;50.092;9.182;2023-12-07T04:07:15;28.90;;;14.43;;
38851;SDS011;24605;50.092;9.182;2023-12-07T04:09:42;32.08;;;15.10;;
38851;SDS011;24605;50.092;9.182;2023-12-07T04:12:10;28.00;;;13.65;;
38851;SDS011;24605;50.092;9.182;2023-12-07T04:14:36;41.72;;;23.13;;
38851;SDS011;24605;50.092;9.182;2023-12-07T04:17:02;35.10;;;16.35;;
38851;SDS011;24605;50.092;9.182;2023-12-07T04:19:29;33.90;;;16.08;;
38851;SDS011;24605;50.092;9.182;2023-12-07T04:21:56;35.22;;;15.18;;
38851;SDS011;24605;50.092;9.182;2023-12-07T04:24:22;41.28;;;17.27;;
38851;SDS011;24605;50.092;9.182;2023-12-07T04:26:48;39.72;;;17.50;;
38851;SDS011;24605;50.092;9.182;2023-12-07T04:29:16;41.92;;;18.85;;
38851;SDS011;24605;50.092;9.182;2023-12-07T04:31:43;35.65;;;15.65;;
38851;SDS011;24605;50.092;9.182;2023-12-07T04:34:09;34.65;;;16.50;;
38851;SDS011;24605;50.092;9.182;2023-12-07T04:36:36;34.78;;;15.30;;
38851;SDS011;24605;50.092;9.182;2023-12-07T04:39:02;35.97;;;15.80;;
38851;SDS011;24605;50.092;9.182;2023-12-07T04:41:29;37.78;;;16.60;;
38851;SDS011;24605;50.092;9.182;2023-12-07T04:43:55;33.22;;;15.55;;
38851;SDS011;24605;50.092;9.182;2023-12-07T04:46:23;41.83;;;16.05;;
38851;SDS011;24605;50.092;9.182;2023-12-07T04:48:50;35.42;;;15.60;;
38851;SDS011;24605;50.092;9.182;2023-12-07T04:51:16;45.88;;;17.10;;
38851;SDS011;24605;50.092;9.182;2023-12-07T04:53:43;40.15;;;18.23;;
38851;SDS011;24605;50.092;9.182;2023-12-07T04:56:09;38.80;;;17.67;;
38851;SDS011;24605;50.092;9.182;2023-12-07T04:58:36;44.22;;;17.17;;
38851;SDS011;24605;50.092;9.182;2023-12-07T05:01:02;38.30;;;17.05;;
38851;SDS011;24605;50.092;9.182;2023-12-07T05:03:31;41.20;;;18.20;;
38851;SDS011;24605;50.092;9.182;2023-12-07T05:05:58;40.75;;;18.38;;
38851;SDS011;24605;50.092;9.182;2023-12-07T05:08:24;44.42;;;17.70;;
38851;SDS011;24605;50.092;9.182;2023-12-07T05:10:51;43.70;;;18.42;;
38851;SDS011;24605;50.092;9.182;2023-12-07T05:13:17;41.00;;;17.40;;
38851;SDS011;24605;50.092;9.182;2023-12-07T05:15:44;45.30;;;18.38;;
38851;SDS011;24605;50.092;9.182;2023-12-07T05:18:11;46.03;;;19.67;;
38851;SDS011;24605;50.092;9.182;2023-12-07T05:20:40;42.67;;;18.40;;
38851;SDS011;24605;50.092;9.182;2023-12-07T05:23:08;41.55;;;17.77;;
38851;SDS011;24605;50.092;9.182;2023-12-07T05:25:34;44.28;;;17.45;;
38851;SDS011;24605;50.092;9.182;2023-12-07T05:28:01;44.10;;;17.85;;
38851;SDS011;24605;50.092;9.182;2023-12-07T05:30:28;41.17;;;17.85;;
38851;SDS011;24605;50.092;9.182;2023-12-07T05:32:54;36.60;;;16.23;;
38851;SDS011;24605;50.092;9.182;2023-12-07T05:35:24;37.90;;;16.95;;
38851;SDS011;24605;50.092;9.182;2023-12-07T05:37:51;38.92;;;16.10;;
38851;SDS011;24605;50.092;9.182;2023-12-07T05:40:18;39.28;;;16.83;;
38851;SDS011;24605;50.092;9.182;2023-12-07T05:42:45;37.25;;;16.75;;
38851;SDS011;24605;50.092;9.182;2023-12-07T05:45:13;35.13;;;15.35;;
38851;SDS011;24605;50.092;9.182;2023-12-07T05:47:40;38.20;;;16.08;;
38851;SDS011;24605;50.092;9.182;2023-12-07T05:50:07;36.92;;;15.85;;
38851;SDS011;24605;50.092;9.182;2023-12-07T05:52:34;36.85;;;16.65;;
38851;SDS011;24605;50.092;9.182;2023-12-07T05:55:02;38.58;;;16.23;;
38851;SDS011;24605;50.092;9.182;2023-12-07T05:57:30;40.75;;;16.10;;
38851;SDS011;24605;50.092;9.182;2023-12-07T05:59:56;43.08;;;17.02;;
38851;SDS011;24605;50.092;9.182;2023-12-07T06:02:23;48.83;;;18.40;;
38851;SDS011;24605;50.092;9.182;2023-12-07T06:04:49;42.85;;;18.00;;
38851;SDS011;24605;50.092;9.182;2023-12-07T06:07:15;45.08;;;16.17;;
38851;SDS011;24605;50.092;9.182;2023-12-07T06:09:42;45.45;;;17.55;;
38851;SDS011;24605;50.092;9.182;2023-12-07T06:12:10;46.55;;;18.08;;
38851;SDS011;24605;50.092;9.182;2023-12-07T06:14:36;42.78;;;17.42;;
38851;SDS011;24605;50.092;9.182;2023-12-07T06:17:03;62.63;;;19.00;;
38851;SDS011;24605;50.092;9.182;2023-12-07T06:19:29;54.10;;;19.00;;
38851;SDS011;24605;50.092;9.182;2023-12-07T06:21:56;47.70;;;17.77;;
38851;SDS011;24605;50.092;9.182;2023-12-07T06:24:23;43.72;;;17.80;;
38851;SDS011;24605;50.092;9.182;2023-12-07T06:26:50;40.92;;;18.25;;
38851;SDS011;24605;50.092;9.182;2023-12-07T06:29:18;50.28;;;18.75;;
38851;SDS011;24605;50.092;9.182;2023-12-07T06:31:45;41.25;;;17.88;;
38851;SDS011;24605;50.092;9.182;2023-12-07T06:34:11;46.25;;;17.50;;
38851;SDS011;24605;50.092;9.182;2023-12-07T06:36:38;42.35;;;18.67;;
38851;SDS011;24605;50.092;9.182;2023-12-07T06:39:04;43.60;;;18.52;;
38851;SDS011;24605;50.092;9.182;2023-12-07T06:41:31;45.55;;;17.83;;
38851;SDS011;24605;50.092;9.182;2023-12-07T06:43:58;44.45;;;19.13;;
38851;SDS011;24605;50.092;9.182;2023-12-07T06:46:26;48.63;;;19.80;;
38851;SDS011;24605;50.092;9.182;2023-12-07T06:48:52;48.55;;;19.80;;
38851;SDS011;24605;50.092;9.182;2023-12-07T06:51:19;47.63;;;19.33;;
38851;SDS011;24605;50.092;9.182;2023-12-07T06:53:45;44.72;;;20.20;;
38851;SDS011;24605;50.092;9.182;2023-12-07T06:56:11;50.95;;;20.35;;
38851;SDS011;24605;50.092;9.182;2023-12-07T06:58:38;46.47;;;19.23;;
38851;SDS011;24605;50.092;9.182;2023-12-07T07:01:04;51.42;;;19.90;;
38851;SDS011;24605;50.092;9.182;2023-12-07T07:03:32;53.15;;;20.15;;
38851;SDS011;24605;50.092;9.182;2023-12-07T07:06:00;46.20;;;20.15;;
38851;SDS011;24605;50.092;9.182;2023-12-07T07:08:26;49.20;;;20.00;;
38851;SDS011;24605;50.092;9.182;2023-12-07T07:10:53;48.58;;;19.92;;
38851;SDS011;24605;50.092;9.182;2023-12-07T07:13:20;54.00;;;21.95;;
38851;SDS011;24605;50.092;9.182;2023-12-07T07:15:46;52.72;;;20.67;;
38851;SDS011;24605;50.092;9.182;2023-12-07T07:18:13;75.30;;;27.35;;
38851;SDS011;24605;50.092;9.182;2023-12-07T07:20:41;67.47;;;24.02;;
38851;SDS011;24605;50.092;9.182;2023-12-07T07:23:08;60.38;;;25.02;;
38851;SDS011;24605;50.092;9.182;2023-12-07T07:25:35;62.67;;;24.10;;
38851;SDS011;24605;50.092;9.182;2023-12-07T07:28:03;61.35;;;23.70;;
38851;SDS011;24605;50.092;9.182;2023-12-07T07:30:30;55.10;;;22.40;;
38851;SDS011;24605;50.092;9.182;2023-12-07T07:32:57;49.67;;;20.20;;
38851;SDS011;24605;50.092;9.182;2023-12-07T07:35:23;57.75;;;20.77;;
38851;SDS011;24605;50.092;9.182;2023-12-07T07:37:53;44.90;;;19.20;;
38851;SDS011;24605;50.092;9.182;2023-12-07T07:40:20;43.97;;;19.08;;
38851;SDS011;24605;50.092;9.182;2023-12-07T07:42:46;52.47;;;21.25;;
38851;SDS011;24605;50.092;9.182;2023-12-07T07:45:13;46.05;;;19.15;;
38851;SDS011;24605;50.092;9.182;2023-12-07T07:47:39;52.80;;;18.55;;
38851;SDS011;24605;50.092;9.182;2023-12-07T07:50:06;47.22;;;19.73;;
38851;SDS011;24605;50.092;9.182;2023-12-07T07:52:33;48.40;;;19.33;;
38851;SDS011;24605;50.092;9.182;2023-12-07T07:55:02;46.17;;;18.02;;
38851;SDS011;24605;50.092;9.182;2023-12-07T07:57:30;48.65;;;19.63;;
38851;SDS011;24605;50.092;9.182;2023-12-07T07:59:56;62.58;;;23.45;;
38851;SDS011;24605;50.092;9.182;2023-12-07T08:02:23;66.57;;;25.30;;
38851;SDS011;24605;50.092;9.182;2023-12-07T08:04:49;412.20;;;34.20;;
38851;SDS011;24605;50.092;9.182;2023-12-07T08:07:17;435.67;;;32.83;;
38851;SDS011;24605;50.092;9.182;2023-12-07T08:09:43;101.25;;;21.55;;
38851;SDS011;24605;50.092;9.182;2023-12-07T08:12:11;96.65;;;23.70;;
38851;SDS011;24605;50.092;9.182;2023-12-07T08:14:37;76.03;;;27.30;;
38851;SDS011;24605;50.092;9.182;2023-12-07T08:17:04;61.67;;;25.08;;
38851;SDS011;24605;50.092;9.182;2023-12-07T08:19:31;59.83;;;23.48;;
38851;SDS011;24605;50.092;9.182;2023-12-07T08:21:58;52.72;;;22.17;;
38851;SDS011;24605;50.092;9.182;2023-12-07T08:24:24;52.50;;;21.27;;
38851;SDS011;24605;50.092;9.182;2023-12-07T08:26:51;259.13;;;38.75;;
38851;SDS011;24605;50.092;9.182;2023-12-07T08:29:19;198.40;;;47.60;;
38851;SDS011;24605;50.092;9.182;2023-12-07T08:31:45;166.68;;;47.10;;
38851;SDS011;24605;50.092;9.182;2023-12-07T08:34:12;93.45;;;35.25;;
38851;SDS011;24605;50.092;9.182;2023-12-07T08:36:39;78.82;;;29.30;;
38851;SDS011;24605;50.092;9.182;2023-12-07T08:39:05;57.22;;;24.02;;
38851;SDS011;24605;50.092;9.182;2023-12-07T08:41:34;49.88;;;24.35;;
38851;SDS011;24605;50.092;9.182;2023-12-07T08:44:01;59.65;;;27.25;;
38851;SDS011;24605;50.092;9.182;2023-12-07T08:46:29;54.75;;;26.65;;
38851;SDS011;24605;50.092;9.182;2023-12-07T08:48:55;51.80;;;24.30;;
38851;SDS011;24605;50.092;9.182;2023-12-07T08:51:22;48.47;;;22.98;;
38851;SDS011;24605;50.092;9.182;2023-12-07T08:53:49;54.03;;;22.88;;
38851;SDS011;24605;50.092;9.182;2023-12-07T08:56:16;45.55;;;20.33;;
38851;SDS011;24605;50.092;9.182;2023-12-07T08:58:43;49.83;;;20.95;;
38851;SDS011;24605;50.092;9.182;2023-12-07T09:01:10;49.28;;;21.35;;
38851;SDS011;24605;50.092;9.182;2023-12-07T09:03:38;52.38;;;20.23;;
38851;SDS011;24605;50.092;9.182;2023-12-07T09:06:06;51.08;;;19.10;;
38851;SDS011;24605;50.092;9.182;2023-12-07T09:08:33;49.78;;;19.45;;
38851;SDS011;24605;50.092;9.182;2023-12-07T09:11:00;50.47;;;18.08;;
38851;SDS011;24605;50.092;9.182;2023-12-07T09:13:26;46.30;;;17.95;;
38851;SDS011;24605;50.092;9.182;2023-12-07T09:15:54;49.72;;;20.85;;
38851;SDS011;24605;50.092;9.182;2023-12-07T09:18:20;56.33;;;22.15;;
38851;SDS011;24605;50.092;9.182;2023-12-07T09:20:48;56.65;;;25.75;;
38851;SDS011;24605;50.092;9.182;2023-12-07T09:23:15;52.05;;;21.55;;
38851;SDS011;24605;50.092;9.182;2023-12-07T09:25:41;48.97;;;19.42;;
38851;SDS011;24605;50.092;9.182;2023-12-07T09:28:08;50.55;;;20.30;;
38851;SDS011;24605;50.092;9.182;2023-12-07T09:30:34;48.72;;;19.60;;
38851;SDS011;24605;50.092;9.182;2023-12-07T09:33:01;49.17;;;20.35;;
38851;SDS011;24605;50.092;9.182;2023-12-07T09:35:28;54.30;;;20.75;;
38851;SDS011;24605;50.092;9.182;2023-12-07T09:37:56;71.38;;;25.50;;
38851;SDS011;24605;50.092;9.182;2023-12-07T09:40:23;57.67;;;24.55;;
38851;SDS011;24605;50.092;9.182;2023-12-07T09:42:50;66.90;;;27.00;;
38851;SDS011;24605;50.092;9.182;2023-12-07T09:45:17;71.28;;;28.65;;
38851;SDS011;24605;50.092;9.182;2023-12-07T09:47:46;65.05;;;28.40;;
38851;SDS011;24605;50.092;9.182;2023-12-07T09:50:15;62.65;;;26.38;;
38851;SDS011;24605;50.092;9.182;2023-12-07T09:52:42;56.47;;;24.45;;
38851;SDS011;24605;50.092;9.182;2023-12-07T09:55:10;61.63;;;27.10;;
38851;SDS011;24605;50.092;9.182;2023-12-07T09:57:37;58.38;;;25.88;;
38851;SDS011;24605;50.092;9.182;2023-12-07T10:00:04;61.15;;;26.15;;
38851;SDS011;24605;50.092;9.182;2023-12-07T10:02:36;60.67;;;28.65;;
38851;SDS011;24605;50.092;9.182;2023-12-07T10:05:03;64.80;;;29.13;;
38851;SDS011;24605;50.092;9.182;2023-12-07T10:07:32;63.65;;;28.75;;
38851;SDS011;24605;50.092;9.182;2023-12-07T10:10:00;72.38;;;28.75;;
38851;SDS011;24605;50.092;9.182;2023-12-07T10:12:29;66.80;;;28.88;;
38851;SDS011;24605;50.092;9.182;2023-12-07T10:14:56;66.25;;;24.58;;
38851;SDS011;24605;50.092;9.182;2023-12-07T10:17:23;101.70;;;28.70;;
38851;SDS011;24605;50.092;9.182;2023-12-07T10:22:34;93.10;;;25.27;;
38851;SDS011;24605;50.092;9.182;2023-12-07T10:25:01;101.13;;;29.20;;
38851;SDS011;24605;50.092;9.182;2023-12-07T10:27:27;86.38;;;24.95;;
38851;SDS011;24605;50.092;9.182;2023-12-07T10:29:58;103.10;;;24.90;;
38851;SDS011;24605;50.092;9.182;2023-12-07T10:32:25;48.78;;;20.52;;
38851;SDS011;24605;50.092;9.182;2023-12-07T10:34:51;114.18;;;25.77;;
38851;SDS011;24605;50.092;9.182;2023-12-07T10:37:18;65.15;;;24.88;;
38851;SDS011;24605;50.092;9.182;2023-12-07T10:39:44;67.55;;;26.95;;
38851;SDS011;24605;50.092;9.182;2023-12-07T10:42:11;56.53;;;21.90;;
38851;SDS011;24605;50.092;9.182;2023-12-07T10:44:42;85.82;;;24.27;;
38851;SDS011;24605;50.092;9.182;2023-12-07T10:47:10;99.20;;;21.27;;
38851;SDS011;24605;50.092;9.182;2023-12-07T10:49:37;40.58;;;17.58;;
38851;SDS011;24605;50.092;9.182;2023-12-07T10:52:10;45.92;;;20.65;;
38851;SDS011;24605;50.092;9.182;2023-12-07T10:54:41;40.60;;;18.80;;
38851;SDS011;24605;50.092;9.182;2023-12-07T10:57:13;41.40;;;18.52;;
38851;SDS011;24605;50.092;9.182;2023-12-07T10:59:41;49.05;;;20.50;;
38851;SDS011;24605;50.092;9.182;2023-12-07T11:02:09;46.28;;;20.50;;
38851;SDS011;24605;50.092;9.182;2023-12-07T11:04:39;38.10;;;18.35;;
38851;SDS011;24605;50.092;9.182;2023-12-07T11:07:09;37.35;;;17.52;;
38851;SDS011;24605;50.092;9.182;2023-12-07T11:09:39;35.65;;;17.23;;
38851;SDS011;24605;50.092;9.182;2023-12-07T11:12:13;42.92;;;18.52;;
38851;SDS011;24605;50.092;9.182;2023-12-07T11:14:46;35.90;;;16.95;;
38851;SDS011;24605;50.092;9.182;2023-12-07T11:17:14;37.17;;;17.52;;
38851;SDS011;24605;50.092;9.182;2023-12-07T11:19:44;41.30;;;17.75;;
38851;SDS011;24605;50.092;9.182;2023-12-07T11:22:13;40.67;;;17.15;;
38851;SDS011;24605;50.092;9.182;2023-12-07T11:24:51;34.65;;;16.30;;
38851;SDS011;24605;50.092;9.182;2023-12-07T11:27:18;44.72;;;18.15;;
38851;SDS011;24605;50.092;9.182;2023-12-07T11:29:47;32.88;;;15.95;;
38851;SDS011;24605;50.092;9.182;2023-12-07T11:32:13;32.30;;;14.38;;
38851;SDS011;24605;50.092;9.182;2023-12-07T11:34:41;30.08;;;14.25;;
38851;SDS011;24605;50.092;9.182;2023-12-07T11:37:08;29.85;;;14.57;;
38851;SDS011;24605;50.092;9.182;2023-12-07T11:39:35;27.45;;;13.73;;
38851;SDS011;24605;50.092;9.182;2023-12-07T11:42:06;29.92;;;14.07;;
38851;SDS011;24605;50.092;9.182;2023-12-07T11:44:34;31.17;;;14.65;;
38851;SDS011;24605;50.092;9.182;2023-12-07T11:47:02;31.50;;;14.98;;
38851;SDS011;24605;50.092;9.182;2023-12-07T11:49:29;32.42;;;15.20;;
38851;SDS011;24605;50.092;9.182;2023-12-07T11:51:56;27.95;;;14.65;;
38851;SDS011;24605;50.092;9.182;2023-12-07T11:54:23;30.45;;;15.32;;
38851;SDS011;24605;50.092;9.182;2023-12-07T11:56:51;29.70;;;14.52;;
38851;SDS011;24605;50.092;9.182;2023-12-07T11:59:18;28.67;;;13.10;;
38851;SDS011;24605;50.092;9.182;2023-12-07T12:01:46;29.95;;;14.93;;
38851;SDS011;24605;50.092;9.182;2023-12-07T12:04:14;36.30;;;16.77;;
38851;SDS011;24605;50.092;9.182;2023-12-07T12:06:42;29.45;;;14.50;;
38851;SDS011;24605;50.092;9.182;2023-12-07T12:09:09;25.50;;;13.90;;
38851;SDS011;24605;50.092;9.182;2023-12-07T12:11:37;27.92;;;14.32;;
38851;SDS011;24605;50.092;9.182;2023-12-07T12:14:09;30.30;;;14.70;;
38851;SDS011;24605;50.092;9.182;2023-12-07T12:16:36;27.38;;;14.15;;
38851;SDS011;24605;50.092;9.182;2023-12-07T12:19:03;27.80;;;14.77;;
38851;SDS011;24605;50.092;9.182;2023-12-07T12:21:34;28.42;;;14.45;;
38851;SDS011;24605;50.092;9.182;2023-12-07T12:24:00;27.65;;;14.32;;
38851;SDS011;24605;50.092;9.182;2023-12-07T12:26:27;25.25;;;14.40;;
38851;SDS011;24605;50.092;9.182;2023-12-07T12:28:54;23.75;;;14.00;;
38851;SDS011;24605;50.092;9.182;2023-12-07T12:31:21;24.80;;;12.75;;
38851;SDS011;24605;50.092;9.182;2023-12-07T12:33:48;25.15;;;12.88;;
38851;SDS011;24605;50.092;9.182;2023-12-07T12:36:15;20.85;;;11.77;;
38851;SDS011;24605;50.092;9.182;2023-12-07T12:38:44;23.70;;;11.45;;
38851;SDS011;24605;50.092;9.182;2023-12-07T12:41:12;19.23;;;10.40;;
38851;SDS011;24605;50.092;9.182;2023-12-07T12:43:44;17.70;;;9.82;;
38851;SDS011;24605;50.092;9.182;2023-12-07T12:46:11;16.90;;;8.65;;
38851;SDS011;24605;50.092;9.182;2023-12-07T12:48:37;17.92;;;9.02;;
38851;SDS011;24605;50.092;9.182;2023-12-07T12:51:07;17.38;;;9.18;;
38851;SDS011;24605;50.092;9.182;2023-12-07T12:53:34;17.67;;;9.70;;
38851;SDS011;24605;50.092;9.182;2023-12-07T12:56:02;17.63;;;9.50;;
38851;SDS011;24605;50.092;9.182;2023-12-07T12:58:29;14.38;;;8.75;;
38851;SDS011;24605;50.092;9.182;2023-12-07T13:00:55;18.52;;;9.63;;
38851;SDS011;24605;50.092;9.182;2023-12-07T13:03:22;18.45;;;9.55;;
38851;SDS011;24605;50.092;9.182;2023-12-07T13:05:48;20.85;;;12.20;;
38851;SDS011;24605;50.092;9.182;2023-12-07T13:08:15;18.83;;;10.80;;
38851;SDS011;24605;50.092;9.182;2023-12-07T13:10:41;21.50;;;10.85;;
38851;SDS011;24605;50.092;9.182;2023-12-07T13:13:09;20.33;;;11.80;;
38851;SDS011;24605;50.092;9.182;2023-12-07T13:15:35;21.80;;;11.95;;
38851;SDS011;24605;50.092;9.182;2023-12-07T13:18:02;19.77;;;9.88;;
38851;SDS011;24605;50.092;9.182;2023-12-07T13:20:29;13.02;;;8.25;;
38851;SDS011;24605;50.092;9.182;2023-12-07T13:22:56;13.50;;;8.32;;
38851;SDS011;24605;50.092;9.182;2023-12-07T13:25:22;15.07;;;8.57;;
38851;SDS011;24605;50.092;9.182;2023-12-07T13:27:49;13.27;;;7.05;;
38851;SDS011;24605;50.092;9.182;2023-12-07T13:30:17;22.33;;;12.98;;
38851;SDS011;24605;50.092;9.182;2023-12-07T13:32:43;24.48;;;13.75;;
38851;SDS011;24605;50.092;9.182;2023-12-07T13:35:10;31.88;;;15.48;;
38851;SDS011;24605;50.092;9.182;2023-12-07T13:37:38;28.52;;;15.63;;
38851;SDS011;24605;50.092;9.182;2023-12-07T13:40:05;33.35;;;18.00;;
38851;SDS011;24605;50.092;9.182;2023-12-07T13:42:35;30.35;;;16.10;;
38851;SDS011;24605;50.092;9.182;2023-12-07T13:45:03;33.58;;;17.58;;
38851;SDS011;24605;50.092;9.182;2023-12-07T13:47:31;31.25;;;16.83;;
38851;SDS011;24605;50.092;9.182;2023-12-07T13:49:58;32.67;;;16.75;;
38851;SDS011;24605;50.092;9.182;2023-12-07T13:52:26;29.00;;;15.82;;
38851;SDS011;24605;50.092;9.182;2023-12-07T13:54:53;36.00;;;16.13;;
38851;SDS011;24605;50.092;9.182;2023-12-07T13:57:20;44.28;;;22.85;;
38851;SDS011;24605;50.092;9.182;2023-12-07T13:59:49;37.92;;;16.98;;
38851;SDS011;24605;50.092;9.182;2023-12-07T14:02:16;38.88;;;16.98;;
38851;SDS011;24605;50.092;9.182;2023-12-07T14:04:44;37.70;;;18.58;;
38851;SDS011;24605;50.092;9.182;2023-12-07T14:07:11;40.83;;;17.38;;
38851;SDS011;24605;50.092;9.182;2023-12-07T14:09:39;33.60;;;16.95;;
38851;SDS011;24605;50.092;9.182;2023-12-07T14:12:07;30.50;;;15.77;;
38851;SDS011;24605;50.092;9.182;2023-12-07T14:14:35;34.22;;;16.17;;
38851;SDS011;24605;50.092;9.182;2023-12-07T14:17:02;30.52;;;16.40;;
38851;SDS011;24605;50.092;9.182;2023-12-07T14:19:29;30.85;;;16.23;;
38851;SDS011;24605;50.092;9.182;2023-12-07T14:21:57;27.98;;;14.23;;
38851;SDS011;24605;50.092;9.182;2023-12-07T14:24:23;29.98;;;15.63;;
38851;SDS011;24605;50.092;9.182;2023-12-07T14:26:51;35.15;;;15.60;;